sensor_id;sensor_type;location;lat;lon;timestamp;pressure;altitude;pressure_sealevel;temperature;humidity
42603;BME280;28233;55.748;48.752;2023-08-06T00:00:15;99525.25;;;21.15;86.18
42603;BME280;28233;55.748;48.752;2023-08-06T00:02:18;99530.44;;;21.13;86.26
42603;BME280;28233;55.748;48.752;2023-08-06T00:04:21;99519.66;;;21.07;86.17
42603;BME280;28233;55.748;48.752;2023-08-06T00:06:23;99533.63;;;21.07;86.40
42603;BME280;28233;55.748;48.752;2023-08-06T00:08:26;99528.78;;;21.04;86.12
42603;BME280;28233;55.748;48.752;2023-08-06T00:10:29;99530.38;;;21.02;86.04
42603;BME280;28233;55.748;48.752;2023-08-06T00:12:32;99529.16;;;20.99;86.07
42603;BME280;28233;55.748;48.752;2023-08-06T00:14:35;99533.56;;;20.97;86.13
42603;BME280;28233;55.748;48.752;2023-08-06T00:16:37;99515.56;;;20.90;85.95
42603;BME280;28233;55.748;48.752;2023-08-06T00:18:40;99522.75;;;20.92;85.98
42603;BME280;28233;55.748;48.752;2023-08-06T00:20:43;99528.72;;;20.90;86.35
42603;BME280;28233;55.748;48.752;2023-08-06T00:22:46;99535.09;;;20.90;86.76
42603;BME280;28233;55.748;48.752;2023-08-06T00:24:49;99529.94;;;20.89;86.70
42603;BME280;28233;55.748;48.752;2023-08-06T00:28:54;99535.09;;;20.87;86.58
42603;BME280;28233;55.748;48.752;2023-08-06T00:30:57;99540.28;;;20.85;86.97
42603;BME280;28233;55.748;48.752;2023-08-06T00:33:00;99543.44;;;20.83;86.72
42603;BME280;28233;55.748;48.752;2023-08-06T00:35:03;99533.06;;;20.80;86.88
42603;BME280;28233;55.748;48.752;2023-08-06T00:37:07;99539.03;;;20.75;86.68
42603;BME280;28233;55.748;48.752;2023-08-06T00:39:09;99545.81;;;20.78;86.17
42603;BME280;28233;55.748;48.752;2023-08-06T00:41:13;99547.03;;;20.77;85.85
42603;BME280;28233;55.748;48.752;2023-08-06T00:43:16;99537.03;;;20.72;85.56
42603;BME280;28233;55.748;48.752;2023-08-06T00:45:19;99551.41;;;20.78;85.51
42603;BME280;28233;55.748;48.752;2023-08-06T00:47:22;99546.63;;;20.78;85.43
42603;BME280;28233;55.748;48.752;2023-08-06T00:49:26;99547.81;;;20.77;85.34
42603;BME280;28233;55.748;48.752;2023-08-06T00:51:28;99551.00;;;20.76;85.51
42603;BME280;28233;55.748;48.752;2023-08-06T00:53:31;99552.19;;;20.75;85.58
42603;BME280;28233;55.748;48.752;2023-08-06T00:55:34;99551.78;;;20.73;85.73
42603;BME280;28233;55.748;48.752;2023-08-06T00:57:37;99544.56;;;20.72;85.71
42603;BME280;28233;55.748;48.752;2023-08-06T00:59:40;99554.94;;;20.71;86.05
42603;BME280;28233;55.748;48.752;2023-08-06T01:01:43;99550.16;;;20.68;86.15
42603;BME280;28233;55.748;48.752;2023-08-06T01:03:47;99545.34;;;20.65;86.30
42603;BME280;28233;55.748;48.752;2023-08-06T01:05:50;99557.69;;;20.64;86.33
42603;BME280;28233;55.748;48.752;2023-08-06T01:15:30;99560.06;;;20.58;87.24
42603;BME280;28233;55.748;48.752;2023-08-06T01:17:39;99554.81;;;20.53;87.28
42603;BME280;28233;55.748;48.752;2023-08-06T01:19:43;99560.88;;;20.59;87.05
42603;BME280;28233;55.748;48.752;2023-08-06T01:21:46;99566.06;;;20.60;86.98
42603;BME280;28233;55.748;48.752;2023-08-06T01:23:48;99566.44;;;20.62;86.95
42603;BME280;28233;55.748;48.752;2023-08-06T01:26:19;99564.06;;;20.64;87.21
42603;BME280;28233;55.748;48.752;2023-08-06T01:30:48;99568.03;;;20.60;87.65
42603;BME280;28233;55.748;48.752;2023-08-06T01:32:58;99561.66;;;20.59;87.82
42603;BME280;28233;55.748;48.752;2023-08-06T01:35:04;99572.03;;;20.62;88.06
42603;BME280;28233;55.748;48.752;2023-08-06T01:37:07;99569.25;;;20.62;88.15
42603;BME280;28233;55.748;48.752;2023-08-06T01:39:10;99566.44;;;20.62;88.50
42603;BME280;28233;55.748;48.752;2023-08-06T01:41:13;99572.81;;;20.59;88.47
42603;BME280;28233;55.748;48.752;2023-08-06T01:43:15;99577.59;;;20.59;88.59
42603;BME280;28233;55.748;48.752;2023-08-06T01:45:18;99578.75;;;20.54;88.66
42603;BME280;28233;55.748;48.752;2023-08-06T01:47:21;99579.94;;;20.53;88.63
42603;BME280;28233;55.748;48.752;2023-08-06T01:49:24;99583.13;;;20.55;88.73
42603;BME280;28233;55.748;48.752;2023-08-06T01:51:26;99579.94;;;20.53;88.86
42603;BME280;28233;55.748;48.752;2023-08-06T01:53:29;99579.94;;;20.53;89.00
42603;BME280;28233;55.748;48.752;2023-08-06T01:55:32;99581.19;;;20.59;89.03
42603;BME280;28233;55.748;48.752;2023-08-06T01:57:35;99578.03;;;20.61;89.00
42603;BME280;28233;55.748;48.752;2023-08-06T01:59:37;99584.03;;;20.63;88.97
42603;BME280;28233;55.748;48.752;2023-08-06T02:01:40;99588.03;;;20.65;88.91
42603;BME280;28233;55.748;48.752;2023-08-06T02:03:43;99584.03;;;20.66;88.91
42603;BME280;28233;55.748;48.752;2023-08-06T02:05:46;99582.44;;;20.65;88.79
42603;BME280;28233;55.748;48.752;2023-08-06T02:07:49;99592.00;;;20.64;88.51
42603;BME280;28233;55.748;48.752;2023-08-06T02:09:51;99575.25;;;20.64;88.46
42603;BME280;28233;55.748;48.752;2023-08-06T02:11:54;99585.28;;;20.73;88.49
42603;BME280;28233;55.748;48.752;2023-08-06T02:13:57;99584.50;;;20.76;88.24
42603;BME280;28233;55.748;48.752;2023-08-06T02:16:00;99584.91;;;20.78;88.13
42603;BME280;28233;55.748;48.752;2023-08-06T02:18:03;99585.31;;;20.80;88.21
42603;BME280;28233;55.748;48.752;2023-08-06T02:20:06;99588.53;;;20.82;88.10
42603;BME280;28233;55.748;48.752;2023-08-06T02:22:09;99587.34;;;20.83;87.77
42603;BME280;28233;55.748;48.752;2023-08-06T02:24:12;99588.50;;;20.78;87.53
42603;BME280;28233;55.748;48.752;2023-08-06T02:26:14;99598.88;;;20.78;87.52
42603;BME280;28233;55.748;48.752;2023-08-06T02:28:17;99596.47;;;20.76;87.38
42603;BME280;28233;55.748;48.752;2023-08-06T02:30:20;99587.69;;;20.78;87.15
42603;BME280;28233;55.748;48.752;2023-08-06T02:32:23;99594.09;;;20.78;87.10
42603;BME280;28233;55.748;48.752;2023-08-06T02:34:26;99586.50;;;20.79;87.07
42603;BME280;28233;55.748;48.752;2023-08-06T02:36:28;99588.91;;;20.80;86.92
42603;BME280;28233;55.748;48.752;2023-08-06T02:38:32;99591.28;;;20.78;86.94
42603;BME280;28233;55.748;48.752;2023-08-06T02:40:35;99593.69;;;20.80;87.08
42603;BME280;28233;55.748;48.752;2023-08-06T02:42:38;99592.94;;;20.86;86.74
42603;BME280;28233;55.748;48.752;2023-08-06T02:44:40;99604.53;;;20.92;86.59
42603;BME280;28233;55.748;48.752;2023-08-06T02:46:44;99603.38;;;20.97;86.23
42603;BME280;28233;55.748;48.752;2023-08-06T02:48:47;99599.00;;;20.99;86.10
42603;BME280;28233;55.748;48.752;2023-08-06T02:50:50;99599.81;;;21.03;85.84
42603;BME280;28233;55.748;48.752;2023-08-06T02:52:53;99595.47;;;21.09;85.67
42603;BME280;28233;55.748;48.752;2023-08-06T02:54:55;99597.47;;;21.13;85.03
42603;BME280;28233;55.748;48.752;2023-08-06T02:56:58;99603.09;;;21.20;84.99
42603;BME280;28233;55.748;48.752;2023-08-06T02:59:01;99601.53;;;21.22;84.51
42603;BME280;28233;55.748;48.752;2023-08-06T03:01:05;99609.91;;;21.26;84.62
42603;BME280;28233;55.748;48.752;2023-08-06T03:03:09;99602.34;;;21.26;84.40
42603;BME280;28233;55.748;48.752;2023-08-06T03:05:12;99605.09;;;21.23;84.21
42603;BME280;28233;55.748;48.752;2023-08-06T03:07:15;99615.09;;;21.27;84.04
42603;BME280;28233;55.748;48.752;2023-08-06T03:09:18;99608.72;;;21.30;84.22
42603;BME280;28233;55.748;48.752;2023-08-06T03:11:21;99607.56;;;21.31;84.03
42603;BME280;28233;55.748;48.752;2023-08-06T03:13:24;99614.34;;;21.34;84.35
42603;BME280;28233;55.748;48.752;2023-08-06T03:15:27;99613.97;;;21.36;84.04
42603;BME280;28233;55.748;48.752;2023-08-06T03:17:29;99614.41;;;21.41;83.90
42603;BME280;28233;55.748;48.752;2023-08-06T03:19:32;99623.22;;;21.47;83.67
42603;BME280;28233;55.748;48.752;2023-08-06T03:21:35;99608.84;;;21.48;83.86
42603;BME280;28233;55.748;48.752;2023-08-06T03:23:38;99613.66;;;21.55;83.33
42603;BME280;28233;55.748;48.752;2023-08-06T03:25:40;99617.69;;;21.61;83.04
42603;BME280;28233;55.748;48.752;2023-08-06T03:27:44;99614.09;;;21.64;83.04
42603;BME280;28233;55.748;48.752;2023-08-06T03:29:50;99608.50;;;21.64;82.57
42603;BME280;28233;55.748;48.752;2023-08-06T03:31:53;99610.50;;;21.67;82.53
42603;BME280;28233;55.748;48.752;2023-08-06T03:33:55;99611.72;;;21.66;82.51
42603;BME280;28233;55.748;48.752;2023-08-06T03:35:58;99608.91;;;21.70;82.77
42603;BME280;28233;55.748;48.752;2023-08-06T03:38:01;99610.13;;;21.72;82.66
42603;BME280;28233;55.748;48.752;2023-08-06T03:40:04;99616.94;;;21.82;82.66
42603;BME280;28233;55.748;48.752;2023-08-06T03:42:08;99611.34;;;21.89;81.96
42603;BME280;28233;55.748;48.752;2023-08-06T03:44:10;99612.97;;;21.90;81.75
42603;BME280;28233;55.748;48.752;2023-08-06T03:46:13;99626.56;;;21.95;81.83
42603;BME280;28233;55.748;48.752;2023-08-06T03:48:16;99622.56;;;22.00;81.09
42603;BME280;28233;55.748;48.752;2023-08-06T03:50:19;99626.16;;;22.01;81.13
42603;BME280;28233;55.748;48.752;2023-08-06T03:52:22;99624.19;;;22.05;80.95
42603;BME280;28233;55.748;48.752;2023-08-06T03:54:24;99624.19;;;22.12;80.52
42603;BME280;28233;55.748;48.752;2023-08-06T03:56:28;99617.41;;;22.09;80.20
42603;BME280;28233;55.748;48.752;2023-08-06T03:58:30;99625.41;;;22.18;80.10
42603;BME280;28233;55.748;48.752;2023-08-06T04:00:33;99622.63;;;22.22;80.13
42603;BME280;28233;55.748;48.752;2023-08-06T04:02:36;99625.44;;;22.25;80.22
42603;BME280;28233;55.748;48.752;2023-08-06T04:04:39;99633.44;;;22.30;79.27
42603;BME280;28233;55.748;48.752;2023-08-06T04:06:42;99632.25;;;22.35;79.86
42603;BME280;28233;55.748;48.752;2023-08-06T04:08:44;99638.66;;;22.39;79.37
42603;BME280;28233;55.748;48.752;2023-08-06T04:10:53;99625.06;;;22.37;78.09
42603;BME280;28233;55.748;48.752;2023-08-06T04:12:56;99635.84;;;22.43;76.38
42603;BME280;28233;55.748;48.752;2023-08-06T04:15:00;99627.03;;;22.48;75.57
42603;BME280;28233;55.748;48.752;2023-08-06T04:17:08;99627.84;;;22.52;75.65
42603;BME280;28233;55.748;48.752;2023-08-06T04:19:10;99632.66;;;22.58;75.75
42603;BME280;28233;55.748;48.752;2023-08-06T04:21:13;99634.25;;;22.67;75.35
42603;BME280;28233;55.748;48.752;2023-08-06T04:23:16;99629.84;;;22.73;74.77
42603;BME280;28233;55.748;48.752;2023-08-06T04:25:19;99637.03;;;22.81;74.06
42603;BME280;28233;55.748;48.752;2023-08-06T04:27:23;99638.63;;;22.86;73.47
42603;BME280;28233;55.748;48.752;2023-08-06T04:29:26;99644.63;;;22.91;73.09
42603;BME280;28233;55.748;48.752;2023-08-06T04:31:29;99644.63;;;22.95;71.82
42603;BME280;28233;55.748;48.752;2023-08-06T04:33:32;99639.84;;;22.99;72.40
42603;BME280;28233;55.748;48.752;2023-08-06T04:35:34;99638.25;;;23.05;71.40
42603;BME280;28233;55.748;48.752;2023-08-06T04:37:37;99631.81;;;23.12;70.70
42603;BME280;28233;55.748;48.752;2023-08-06T04:39:40;99632.59;;;23.19;70.92
42603;BME280;28233;55.748;48.752;2023-08-06T04:41:43;99632.59;;;23.19;71.93
42603;BME280;28233;55.748;48.752;2023-08-06T04:43:46;99636.97;;;23.28;70.76
42603;BME280;28233;55.748;48.752;2023-08-06T04:45:50;99628.16;;;23.29;70.46
42603;BME280;28233;55.748;48.752;2023-08-06T04:47:53;99635.31;;;23.41;71.00
42603;BME280;28233;55.748;48.752;2023-08-06T04:49:56;99635.69;;;23.50;69.99
42603;BME280;28233;55.748;48.752;2023-08-06T04:51:59;99641.69;;;23.49;67.95
42603;BME280;28233;55.748;48.752;2023-08-06T04:54:02;99639.69;;;23.49;68.45
42603;BME280;28233;55.748;48.752;2023-08-06T04:56:04;99635.25;;;23.55;67.46
42603;BME280;28233;55.748;48.752;2023-08-06T04:58:09;99646.09;;;23.57;67.86
42603;BME280;28233;55.748;48.752;2023-08-06T05:00:12;99636.84;;;23.56;66.21
42603;BME280;28233;55.748;48.752;2023-08-06T05:02:14;99640.41;;;23.68;67.55
42603;BME280;28233;55.748;48.752;2023-08-06T05:04:17;99648.03;;;23.78;67.26
42603;BME280;28233;55.748;48.752;2023-08-06T05:06:20;99648.38;;;23.87;68.01
42603;BME280;28233;55.748;48.752;2023-08-06T05:08:23;99647.13;;;23.95;67.03
42603;BME280;28233;55.748;48.752;2023-08-06T05:10:26;99644.28;;;24.02;66.60
42603;BME280;28233;55.748;48.752;2023-08-06T05:12:29;99643.47;;;24.02;67.41
42603;BME280;28233;55.748;48.752;2023-08-06T05:14:32;99648.25;;;24.09;67.93
42603;BME280;28233;55.748;48.752;2023-08-06T05:16:34;99641.81;;;24.12;67.17
42603;BME280;28233;55.748;48.752;2023-08-06T05:18:37;99650.22;;;24.12;67.28
42603;BME280;28233;55.748;48.752;2023-08-06T05:20:42;99641.75;;;24.19;66.03
42603;BME280;28233;55.748;48.752;2023-08-06T05:22:45;99639.28;;;24.28;65.56
42603;BME280;28233;55.748;48.752;2023-08-06T05:24:48;99640.13;;;24.25;66.19
42603;BME280;28233;55.748;48.752;2023-08-06T05:26:51;99639.63;;;24.34;66.64
42603;BME280;28233;55.748;48.752;2023-08-06T05:28:53;99645.19;;;24.41;66.05
42603;BME280;28233;55.748;48.752;2023-08-06T05:30:56;99629.53;;;24.47;65.03
42603;BME280;28233;55.748;48.752;2023-08-06T05:32:59;99634.69;;;24.56;65.48
42603;BME280;28233;55.748;48.752;2023-08-06T05:35:03;99640.66;;;24.61;65.80
42603;BME280;28233;55.748;48.752;2023-08-06T05:37:06;99635.78;;;24.69;64.51
42603;BME280;28233;55.748;48.752;2023-08-06T05:39:09;99634.53;;;24.74;62.95
42603;BME280;28233;55.748;48.752;2023-08-06T05:41:12;99640.84;;;24.85;64.55
42603;BME280;28233;55.748;48.752;2023-08-06T05:43:14;99631.63;;;24.84;63.15
42603;BME280;28233;55.748;48.752;2023-08-06T05:45:17;99630.41;;;24.85;64.49
42603;BME280;28233;55.748;48.752;2023-08-06T05:47:21;99637.94;;;24.96;64.04
42603;BME280;28233;55.748;48.752;2023-08-06T05:49:24;99633.13;;;24.96;62.78
42603;BME280;28233;55.748;48.752;2023-08-06T05:51:28;99631.47;;;24.99;63.40
42603;BME280;28233;55.748;48.752;2023-08-06T05:53:32;99633.06;;;25.00;63.47
42603;BME280;28233;55.748;48.752;2023-08-06T05:55:35;99630.22;;;25.07;63.88
42603;BME280;28233;55.748;48.752;2023-08-06T05:57:38;99631.72;;;25.15;63.25
42603;BME280;28233;55.748;48.752;2023-08-06T05:59:40;99624.00;;;25.23;62.06
42603;BME280;28233;55.748;48.752;2023-08-06T06:01:43;99624.00;;;25.26;60.99
42603;BME280;28233;55.748;48.752;2023-08-06T06:03:46;99623.06;;;25.37;61.15
42603;BME280;28233;55.748;48.752;2023-08-06T06:05:49;99631.03;;;25.42;60.71
42603;BME280;28233;55.748;48.752;2023-08-06T06:07:52;99631.13;;;25.35;62.18
42603;BME280;28233;55.748;48.752;2023-08-06T06:09:54;99632.56;;;25.46;62.33
42603;BME280;28233;55.748;48.752;2023-08-06T06:11:57;99631.22;;;25.58;62.98
42603;BME280;28233;55.748;48.752;2023-08-06T06:14:00;99628.28;;;25.69;61.99
42603;BME280;28233;55.748;48.752;2023-08-06T06:16:03;99629.44;;;25.71;61.82
42603;BME280;28233;55.748;48.752;2023-08-06T06:18:07;99633.81;;;25.76;62.70
42603;BME280;28233;55.748;48.752;2023-08-06T06:20:10;99629.34;;;25.79;62.24
42603;BME280;28233;55.748;48.752;2023-08-06T06:22:13;99634.50;;;25.84;61.55
42603;BME280;28233;55.748;48.752;2023-08-06T06:24:16;99636.94;;;25.82;58.67
42603;BME280;28233;55.748;48.752;2023-08-06T06:26:19;99628.19;;;25.76;58.00
42603;BME280;28233;55.748;48.752;2023-08-06T06:28:22;99625.78;;;25.74;57.99
42603;BME280;28233;55.748;48.752;2023-08-06T06:30:25;99632.16;;;25.79;58.18
42603;BME280;28233;55.748;48.752;2023-08-06T06:32:28;99620.91;;;25.79;57.67
42603;BME280;28233;55.748;48.752;2023-08-06T06:34:30;99626.16;;;25.77;57.76
42603;BME280;28233;55.748;48.752;2023-08-06T06:36:33;99620.16;;;25.74;57.03
42603;BME280;28233;55.748;48.752;2023-08-06T06:38:36;99621.78;;;25.76;57.18
42603;BME280;28233;55.748;48.752;2023-08-06T06:40:39;99615.28;;;25.79;57.44
42603;BME280;28233;55.748;48.752;2023-08-06T06:42:42;99616.00;;;25.86;58.68
42603;BME280;28233;55.748;48.752;2023-08-06T06:44:45;99612.59;;;25.99;58.31
42603;BME280;28233;55.748;48.752;2023-08-06T06:46:48;99620.03;;;26.12;57.19
42603;BME280;28233;55.748;48.752;2023-08-06T06:48:50;99608.31;;;26.18;55.42
42603;BME280;28233;55.748;48.752;2023-08-06T06:50:53;99600.97;;;26.24;55.56
42603;BME280;28233;55.748;48.752;2023-08-06T06:52:56;99610.22;;;26.24;55.75
42603;BME280;28233;55.748;48.752;2023-08-06T06:54:59;99606.34;;;26.14;54.49
42603;BME280;28233;55.748;48.752;2023-08-06T06:57:01;99603.91;;;26.17;51.64
42603;BME280;28233;55.748;48.752;2023-08-06T06:59:07;99603.78;;;26.24;51.08
42603;BME280;28233;55.748;48.752;2023-08-06T07:01:10;99609.69;;;26.33;52.23
42603;BME280;28233;55.748;48.752;2023-08-06T07:03:17;99605.22;;;26.35;52.96
42603;BME280;28233;55.748;48.752;2023-08-06T07:05:20;99602.88;;;26.30;53.72
42603;BME280;28233;55.748;48.752;2023-08-06T07:07:23;99604.91;;;26.30;54.34
42603;BME280;28233;55.748;48.752;2023-08-06T07:09:26;99611.84;;;26.22;53.64
42603;BME280;28233;55.748;48.752;2023-08-06T07:11:29;99619.59;;;26.18;52.40
42603;BME280;28233;55.748;48.752;2023-08-06T07:13:32;99603.41;;;26.22;52.17
42603;BME280;28233;55.748;48.752;2023-08-06T07:15:35;99604.03;;;26.33;51.19
42603;BME280;28233;55.748;48.752;2023-08-06T07:17:38;99591.00;;;26.43;50.80
42603;BME280;28233;55.748;48.752;2023-08-06T07:19:40;99599.25;;;26.57;50.42
42603;BME280;28233;55.748;48.752;2023-08-06T07:21:43;99605.91;;;26.67;49.21
42603;BME280;28233;55.748;48.752;2023-08-06T07:23:46;99596.28;;;26.64;47.49
42603;BME280;28233;55.748;48.752;2023-08-06T07:25:49;99599.56;;;26.63;48.21
42603;BME280;28233;55.748;48.752;2023-08-06T07:27:52;99596.63;;;26.70;47.25
42603;BME280;28233;55.748;48.752;2023-08-06T07:29:55;99594.09;;;26.75;47.50
42603;BME280;28233;55.748;48.752;2023-08-06T07:31:58;99595.75;;;26.73;46.67
42603;BME280;28233;55.748;48.752;2023-08-06T07:34:00;99595.31;;;26.74;47.17
42603;BME280;28233;55.748;48.752;2023-08-06T07:36:14;99594.75;;;26.83;45.98
42603;BME280;28233;55.748;48.752;2023-08-06T07:38:17;99592.59;;;26.91;46.32
42603;BME280;28233;55.748;48.752;2023-08-06T07:40:20;99581.97;;;26.98;46.31
42603;BME280;28233;55.748;48.752;2023-08-06T07:42:23;99589.41;;;26.89;46.19
42603;BME280;28233;55.748;48.752;2023-08-06T07:44:25;99593.75;;;26.93;46.19
42603;BME280;28233;55.748;48.752;2023-08-06T07:46:28;99589.28;;;26.96;46.15
42603;BME280;28233;55.748;48.752;2023-08-06T07:48:31;99597.31;;;26.97;46.23
42603;BME280;28233;55.748;48.752;2023-08-06T07:50:34;99591.19;;;27.03;45.23
42603;BME280;28233;55.748;48.752;2023-08-06T07:52:37;99596.31;;;27.08;45.18
42603;BME280;28233;55.748;48.752;2023-08-06T07:54:41;99598.56;;;27.16;45.21
42603;BME280;28233;55.748;48.752;2023-08-06T07:56:43;99591.19;;;27.23;45.14
42603;BME280;28233;55.748;48.752;2023-08-06T07:58:46;99588.00;;;27.20;45.45
42603;BME280;28233;55.748;48.752;2023-08-06T08:00:49;99588.75;;;27.25;45.28
42603;BME280;28233;55.748;48.752;2023-08-06T08:02:53;99596.34;;;27.28;44.79
42603;BME280;28233;55.748;48.752;2023-08-06T08:04:56;99597.56;;;27.27;45.50
42603;BME280;28233;55.748;48.752;2023-08-06T08:06:59;99595.28;;;27.18;46.15
42603;BME280;28233;55.748;48.752;2023-08-06T08:09:01;99590.44;;;27.18;45.82
42603;BME280;28233;55.748;48.752;2023-08-06T08:11:05;99581.81;;;27.29;45.34
42603;BME280;28233;55.748;48.752;2023-08-06T08:13:08;99588.44;;;27.39;44.88
42603;BME280;28233;55.748;48.752;2023-08-06T08:15:13;99589.19;;;27.43;44.65
42603;BME280;28233;55.748;48.752;2023-08-06T08:17:16;99589.91;;;27.47;43.92
42603;BME280;28233;55.748;48.752;2023-08-06T08:19:27;99576.38;;;27.38;44.95
42603;BME280;28233;55.748;48.752;2023-08-06T08:21:34;99579.78;;;27.50;44.13
42603;BME280;28233;55.748;48.752;2023-08-06T08:23:38;99587.78;;;27.51;44.39
42603;BME280;28233;55.748;48.752;2023-08-06T08:25:42;99584.00;;;27.58;44.22
42603;BME280;28233;55.748;48.752;2023-08-06T08:27:49;99575.69;;;27.51;43.86
42603;BME280;28233;55.748;48.752;2023-08-06T08:29:52;99587.63;;;27.58;43.59
42603;BME280;28233;55.748;48.752;2023-08-06T08:31:55;99580.19;;;27.48;42.89
42603;BME280;28233;55.748;48.752;2023-08-06T08:33:59;99588.94;;;27.54;42.88
42603;BME280;28233;55.748;48.752;2023-08-06T08:36:03;99589.66;;;27.58;42.87
42603;BME280;28233;55.748;48.752;2023-08-06T08:38:06;99590.91;;;27.57;42.74
42603;BME280;28233;55.748;48.752;2023-08-06T08:40:09;99588.22;;;27.50;42.00
42603;BME280;28233;55.748;48.752;2023-08-06T08:42:13;99589.38;;;27.52;43.12
42603;BME280;28233;55.748;48.752;2023-08-06T08:44:17;99578.97;;;27.49;43.10
42603;BME280;28233;55.748;48.752;2023-08-06T08:46:21;99582.81;;;27.39;43.29
42603;BME280;28233;55.748;48.752;2023-08-06T08:48:24;99588.22;;;27.50;43.70
42603;BME280;28233;55.748;48.752;2023-08-06T08:50:28;99578.31;;;27.61;42.74
42603;BME280;28233;55.748;48.752;2023-08-06T08:52:32;99596.75;;;27.66;42.95
42603;BME280;28233;55.748;48.752;2023-08-06T08:54:38;99583.25;;;27.74;43.97
42603;BME280;28233;55.748;48.752;2023-08-06T08:56:41;99577.00;;;27.66;43.20
42603;BME280;28233;55.748;48.752;2023-08-06T08:58:44;99579.81;;;27.66;43.44
42603;BME280;28233;55.748;48.752;2023-08-06T09:00:47;99585.63;;;27.59;42.43
42603;BME280;28233;55.748;48.752;2023-08-06T09:02:51;99575.75;;;27.67;42.67
42603;BME280;28233;55.748;48.752;2023-08-06T09:04:56;99588.63;;;27.88;42.48
42603;BME280;28233;55.748;48.752;2023-08-06T09:07:05;99579.22;;;28.11;42.77
42603;BME280;28233;55.748;48.752;2023-08-06T09:09:16;99571.97;;;28.27;41.88
42603;BME280;28233;55.748;48.752;2023-08-06T09:11:21;99578.75;;;28.29;42.22
42603;BME280;28233;55.748;48.752;2023-08-06T09:13:24;99579.81;;;28.35;42.09
42603;BME280;28233;55.748;48.752;2023-08-06T09:15:27;99575.06;;;28.32;42.13
42603;BME280;28233;55.748;48.752;2023-08-06T09:17:30;99572.94;;;28.36;42.54
42603;BME280;28233;55.748;48.752;2023-08-06T09:19:33;99576.09;;;28.38;42.03
42603;BME280;28233;55.748;48.752;2023-08-06T09:21:37;99574.28;;;28.32;41.94
42603;BME280;28233;55.748;48.752;2023-08-06T09:23:41;99567.03;;;28.31;41.36
42603;BME280;28233;55.748;48.752;2023-08-06T09:25:44;99570.56;;;28.35;41.33
42603;BME280;28233;55.748;48.752;2023-08-06T09:27:47;99569.06;;;28.47;41.59
42603;BME280;28233;55.748;48.752;2023-08-06T09:29:50;99571.97;;;28.59;40.63
42603;BME280;28233;55.748;48.752;2023-08-06T09:31:53;99562.63;;;28.62;40.19
42603;BME280;28233;55.748;48.752;2023-08-06T09:33:59;99559.59;;;28.70;40.46
42603;BME280;28233;55.748;48.752;2023-08-06T09:36:09;99554.69;;;28.86;39.52
42603;BME280;28233;55.748;48.752;2023-08-06T09:38:13;99567.84;;;28.93;40.54
42603;BME280;28233;55.748;48.752;2023-08-06T09:40:42;99578.66;;;28.82;40.30
42603;BME280;28233;55.748;48.752;2023-08-06T09:42:45;99566.69;;;28.91;40.50
42603;BME280;28233;55.748;48.752;2023-08-06T09:44:48;99568.81;;;28.86;40.35
42603;BME280;28233;55.748;48.752;2023-08-06T09:46:53;99562.38;;;28.86;40.05
42603;BME280;28233;55.748;48.752;2023-08-06T09:48:55;99560.97;;;28.78;39.75
42603;BME280;28233;55.748;48.752;2023-08-06T09:50:58;99554.09;;;28.79;40.28
42603;BME280;28233;55.748;48.752;2023-08-06T09:53:03;99559.72;;;28.95;40.07
42603;BME280;28233;55.748;48.752;2023-08-06T09:55:06;99575.19;;;28.91;39.79
42603;BME280;28233;55.748;48.752;2023-08-06T09:57:10;99559.84;;;28.75;39.54
42603;BME280;28233;55.748;48.752;2023-08-06T09:59:14;99566.81;;;28.71;39.92
42603;BME280;28233;55.748;48.752;2023-08-06T10:01:18;99551.34;;;28.75;39.15
42603;BME280;28233;55.748;48.752;2023-08-06T10:03:22;99567.72;;;28.67;39.23
42603;BME280;28233;55.748;48.752;2023-08-06T10:05:30;99560.47;;;28.66;39.70
42603;BME280;28233;55.748;48.752;2023-08-06T10:07:35;99560.03;;;28.68;40.03
42603;BME280;28233;55.748;48.752;2023-08-06T10:09:41;99548.28;;;28.99;40.02
42603;BME280;28233;55.748;48.752;2023-08-06T10:11:50;99549.75;;;29.33;39.75
42603;BME280;28233;55.748;48.752;2023-08-06T10:14:14;99547.09;;;29.55;38.44
42603;BME280;28233;55.748;48.752;2023-08-06T10:20:08;99527.56;;;28.89;39.23
42603;BME280;28233;55.748;48.752;2023-08-06T10:23:13;99523.19;;;28.72;39.56
42603;BME280;28233;55.748;48.752;2023-08-06T10:25:56;99525.13;;;28.75;39.82
42603;BME280;28233;55.748;48.752;2023-08-06T10:28:42;99534.09;;;28.86;39.92
42603;BME280;28233;55.748;48.752;2023-08-06T10:30:46;99535.53;;;28.78;40.03
42603;BME280;28233;55.748;48.752;2023-08-06T10:32:51;99528.03;;;29.00;40.03
42603;BME280;28233;55.748;48.752;2023-08-06T10:34:58;99524.03;;;29.14;39.31
42603;BME280;28233;55.748;48.752;2023-08-06T10:37:01;99524.38;;;29.16;38.48
42603;BME280;28233;55.748;48.752;2023-08-06T10:39:04;99525.41;;;29.22;38.26
42603;BME280;28233;55.748;48.752;2023-08-06T10:41:31;99518.06;;;29.25;37.65
42603;BME280;28233;55.748;48.752;2023-08-06T10:43:36;99526.09;;;29.26;37.97
42603;BME280;28233;55.748;48.752;2023-08-06T10:45:49;99511.63;;;29.37;37.94
42603;BME280;28233;55.748;48.752;2023-08-06T10:47:53;99509.38;;;29.58;38.41
42603;BME280;28233;55.748;48.752;2023-08-06T10:50:02;99514.28;;;29.83;37.98
42603;BME280;28233;55.748;48.752;2023-08-06T10:52:13;99522.53;;;29.77;36.71
42603;BME280;28233;55.748;48.752;2023-08-06T10:54:16;99513.81;;;29.71;35.75
42603;BME280;28233;55.748;48.752;2023-08-06T10:56:21;99512.91;;;29.75;36.17
42603;BME280;28233;55.748;48.752;2023-08-06T10:58:25;99523.31;;;29.65;35.84
42603;BME280;28233;55.748;48.752;2023-08-06T11:00:28;99508.16;;;29.59;36.50
42603;BME280;28233;55.748;48.752;2023-08-06T11:02:35;99502.06;;;29.73;36.31
42603;BME280;28233;55.748;48.752;2023-08-06T11:04:38;99505.31;;;29.84;36.68